»·PEaware :: UPS987 KIAH-KONT

UPS987 :: KIAH-KONT

FLIGHT INFORMATION

Flight Status: Arrived
Operator:
United Parcel Service
More flights by this operator :: More flights under this callsign
Pilot: Andrew C. (28419)
Aircraft: BOEING 767-300
(B763)
More flights by this aircraft type
Origin: KIAH G Bush Intercontinental/Houst
United States
Destination: KONT Ontario Intl
United States
More flights between these airports :: More routes between these airports
Route: +BNDTO5 CRGER JCT J2 FST EWM J184 BXK PHRED SCBBY2
File this flight plan on PilotEdge
Remarks: RMK / SIMBRIEF
Altitude:
(Current/Filed)
36,000ft
Speed:
(Current/Filed)
461kts
Departed: 05-Jul-20 07:07 PM
Arrived: 05-Jul-20 09:51 PM
Distance/Time
Traveled:
1155nm/2:44
Distance/Time
To Go:
Arrived

Flight Plot

Page will automatically refresh every two minutes.

Flight plan parsing failed; only flown route is shown


Map Options




Map Legend


Flown Route
Filed Route
Departure Airport
Arrival Airport
Navaid (VOR, NDB)
Fix

Horizontal Profiles

Position Reports

Time Latitude Longitude Heading Altitude Ground
Speed
05-Jul-20 19:05 30.152367 -96.596298 282 28301ft 436kts
05-Jul-20 19:06 30.173578 -96.737024 281 30121ft 448kts
05-Jul-20 19:07 30.195047 -96.880538 281 32008ft 450kts
05-Jul-20 19:08 30.216292 -97.023621 281 33631ft 449kts
05-Jul-20 19:09 30.237367 -97.165318 281 35005ft 446kts
05-Jul-20 19:10 30.258350 -97.306680 281 35878ft 443kts
05-Jul-20 19:11 30.279053 -97.447239 281 35882ft 442kts
05-Jul-20 19:12 30.299545 -97.587447 281 35882ft 442kts
05-Jul-20 19:13 30.320084 -97.728379 282 35880ft 443kts
05-Jul-20 19:14 30.349435 -97.866965 284 35881ft 442kts
05-Jul-20 19:15 30.378621 -98.005118 284 35891ft 442kts
05-Jul-20 19:16 30.407679 -98.143711 284 35912ft 441kts
05-Jul-20 19:17 30.436582 -98.282347 284 35917ft 441kts
05-Jul-20 19:18 30.457512 -98.422727 278 35917ft 442kts
05-Jul-20 19:19 30.472531 -98.563882 277 35917ft 441kts
05-Jul-20 19:20 30.487136 -98.703678 277 35918ft 440kts
05-Jul-20 19:21 30.501699 -98.844604 277 35917ft 440kts
05-Jul-20 19:22 30.516126 -98.985756 277 35920ft 439kts
05-Jul-20 19:23 30.530381 -99.126713 277 35927ft 440kts
05-Jul-20 19:24 30.544518 -99.268114 277 35926ft 439kts
05-Jul-20 19:25 30.558459 -99.409098 276 35926ft 439kts
05-Jul-20 19:26 30.572296 -99.550584 276 35926ft 440kts
05-Jul-20 19:27 30.585947 -99.691804 276 35927ft 440kts
05-Jul-20 19:28 30.599835 -99.833402 278 35925ft 440kts
05-Jul-20 19:29 30.617414 -99.974376 278 35939ft 440kts
05-Jul-20 19:30 30.634701 -100.115077 278 35951ft 439kts
05-Jul-20 19:31 30.651815 -100.255691 278 35948ft 438kts
05-Jul-20 19:32 30.668761 -100.396232 278 35943ft 437kts
05-Jul-20 19:33 30.685524 -100.536544 278 35942ft 437kts
05-Jul-20 19:34 30.702137 -100.676979 278 35939ft 437kts
05-Jul-20 19:35 30.718494 -100.816729 278 35936ft 436kts
05-Jul-20 19:36 30.734735 -100.956564 278 35941ft 435kts
05-Jul-20 19:37 30.750812 -101.096304 278 35944ft 435kts
05-Jul-20 19:38 30.766743 -101.236118 278 35945ft 434kts
05-Jul-20 19:39 30.782497 -101.375752 278 35970ft 434kts
05-Jul-20 19:40 30.798109 -101.515488 278 35970ft 433kts
05-Jul-20 19:41 30.813531 -101.654876 278 35970ft 434kts
05-Jul-20 19:42 30.828826 -101.794564 278 35970ft 433kts
05-Jul-20 19:43 30.843964 -101.933834 278 35971ft 433kts
05-Jul-20 19:44 30.858920 -102.073205 278 35971ft 433kts
05-Jul-20 19:45 30.873739 -102.212696 278 35970ft 433kts
05-Jul-20 19:46 30.888422 -102.352407 278 35970ft 434kts
05-Jul-20 19:47 30.902996 -102.492560 278 35970ft 434kts
05-Jul-20 19:48 30.917411 -102.632670 278 35969ft 434kts
05-Jul-20 19:49 30.931675 -102.772787 278 35970ft 435kts
05-Jul-20 19:50 30.945790 -102.913008 278 35970ft 435kts
05-Jul-20 19:51 30.975487 -103.048693 291 35983ft 433kts
05-Jul-20 19:52 31.017357 -103.180842 291 36009ft 432kts
05-Jul-20 19:53 31.059048 -103.312538 291 36011ft 432kts
05-Jul-20 19:54 31.100050 -103.442553 291 35996ft 432kts
05-Jul-20 19:55 31.141599 -103.574813 291 35986ft 432kts
05-Jul-20 19:56 31.182836 -103.706648 291 35973ft 432kts
05-Jul-20 19:57 31.224033 -103.838902 291 35965ft 432kts
05-Jul-20 19:58 31.265001 -103.970960 291 35980ft 431kts
05-Jul-20 19:59 31.305990 -104.103634 291 36045ft 433kts
05-Jul-20 20:01 31.346845 -104.236442 291 36082ft 432kts
05-Jul-20 20:02 31.387479 -104.369092 291 36082ft 432kts
05-Jul-20 20:03 31.428186 -104.502540 291 36081ft 432kts
05-Jul-20 20:04 31.468517 -104.635315 291 36081ft 432kts
05-Jul-20 20:05 31.508878 -104.768771 290 36082ft 433kts
05-Jul-20 20:06 31.549172 -104.902566 290 36082ft 434kts
05-Jul-20 20:07 31.589329 -105.036484 290 36082ft 434kts
05-Jul-20 20:08 31.629381 -105.170639 290 36081ft 435kts
05-Jul-20 20:09 31.669461 -105.305488 290 36084ft 435kts
05-Jul-20 20:10 31.709519 -105.440864 290 36092ft 435kts
05-Jul-20 20:11 31.749310 -105.575921 290 36081ft 436kts
05-Jul-20 20:12 31.788920 -105.710957 289 36070ft 436kts
05-Jul-20 20:13 31.828530 -105.846606 289 36059ft 436kts
05-Jul-20 20:14 31.867895 -105.982027 289 36016ft 437kts
05-Jul-20 20:15 31.907228 -106.117951 289 35980ft 436kts
05-Jul-20 20:16 31.946265 -106.253462 289 35980ft 437kts
05-Jul-20 20:16 31.975512 -106.368044 287 35981ft 438kts
05-Jul-20 20:18 32.015403 -106.529429 287 35978ft 435kts
05-Jul-20 20:18 32.043563 -106.643815 286 35979ft 436kts
05-Jul-20 20:19 32.077339 -106.781673 286 35980ft 436kts
05-Jul-20 20:21 32.116242 -106.941390 286 36061ft 434kts
05-Jul-20 20:21 32.144054 -107.056153 286 36135ft 435kts
05-Jul-20 20:22 32.177254 -107.193814 286 36137ft 434kts
05-Jul-20 20:23 32.210232 -107.331273 285 36136ft 434kts
05-Jul-20 20:24 32.243343 -107.470004 285 36135ft 437kts
05-Jul-20 20:25 32.276349 -107.608877 286 36136ft 438kts
05-Jul-20 20:26 32.310777 -107.747141 285 36137ft 438kts
05-Jul-20 20:27 32.345164 -107.885926 285 36129ft 438kts
05-Jul-20 20:28 32.379312 -108.024475 285 36114ft 438kts
05-Jul-20 20:29 32.413388 -108.163458 285 36096ft 439kts
05-Jul-20 20:30 32.447216 -108.302140 285 36101ft 438kts
05-Jul-20 20:31 32.480855 -108.440793 285 36108ft 437kts
05-Jul-20 20:32 32.514423 -108.579880 285 36109ft 437kts
05-Jul-20 20:33 32.547077 -108.715893 285 36109ft 437kts
05-Jul-20 20:34 32.580175 -108.854476 285 36110ft 437kts
05-Jul-20 20:35 32.613150 -108.993327 285 36100ft 436kts
05-Jul-20 20:36 32.645917 -109.132067 285 35993ft 437kts
05-Jul-20 20:37 32.678634 -109.271334 285 35926ft 437kts
05-Jul-20 20:38 32.711192 -109.410684 285 35926ft 437kts
05-Jul-20 20:39 32.743391 -109.549257 285 35926ft 437kts
05-Jul-20 20:40 32.775382 -109.687681 284 35927ft 436kts
05-Jul-20 20:41 32.807471 -109.827296 284 35926ft 437kts
05-Jul-20 20:42 32.839202 -109.966115 284 35931ft 437kts
05-Jul-20 20:43 32.870710 -110.104747 285 35946ft 436kts
05-Jul-20 20:44 32.902077 -110.243526 285 35953ft 435kts
05-Jul-20 20:45 32.933323 -110.382545 285 35953ft 435kts
05-Jul-20 20:46 32.964301 -110.521154 285 35952ft 434kts
05-Jul-20 20:47 32.995174 -110.660077 284 35957ft 434kts
05-Jul-20 20:48 33.025925 -110.799228 284 35961ft 434kts
05-Jul-20 20:49 33.056508 -110.938405 284 35948ft 433kts
05-Jul-20 20:50 33.086857 -111.077336 284 35886ft 433kts
05-Jul-20 20:51 33.116742 -111.214926 284 35854ft 433kts
05-Jul-20 20:52 33.146724 -111.353814 284 35853ft 432kts
05-Jul-20 20:53 33.176559 -111.492882 284 35852ft 432kts
05-Jul-20 20:54 33.206244 -111.632075 284 35852ft 432kts
05-Jul-20 20:55 33.235293 -111.769102 284 35854ft 431kts
05-Jul-20 20:56 33.264627 -111.908277 284 35846ft 431kts
05-Jul-20 20:57 33.293793 -112.047491 284 35824ft 430kts
05-Jul-20 20:58 33.322725 -112.186401 284 35817ft 430kts
05-Jul-20 20:59 33.351496 -112.325380 284 35816ft 430kts
05-Jul-20 21:00 33.380048 -112.464139 284 35816ft 430kts
05-Jul-20 21:01 33.408394 -112.602737 284 35815ft 430kts
05-Jul-20 21:02 33.436425 -112.740638 283 35817ft 430kts
05-Jul-20 21:03 33.462102 -112.880622 280 35819ft 428kts
05-Jul-20 21:04 33.483525 -113.021442 280 35821ft 429kts
05-Jul-20 21:05 33.504803 -113.161943 280 35828ft 427kts
05-Jul-20 21:06 33.525900 -113.302314 280 35835ft 427kts
05-Jul-20 21:07 33.546845 -113.442789 280 35841ft 427kts
05-Jul-20 21:08 33.567524 -113.582610 280 35848ft 425kts
05-Jul-20 21:09 33.587817 -113.720921 280 35866ft 425kts
05-Jul-20 21:10 33.608096 -113.860343 280 35872ft 424kts
05-Jul-20 21:11 33.628274 -114.000154 280 35871ft 424kts
05-Jul-20 21:12 33.647479 -114.137721 277 35826ft 424kts
05-Jul-20 21:13 33.661347 -114.278416 277 35778ft 424kts
05-Jul-20 21:14 33.675199 -114.419111 277 35778ft 424kts
05-Jul-20 21:15 33.688917 -114.559986 277 35777ft 424kts
05-Jul-20 21:16 33.702257 -114.698627 276 35781ft 423kts
05-Jul-20 21:17 33.715643 -114.839381 276 35780ft 423kts
05-Jul-20 21:18 33.728803 -114.979535 276 35771ft 414kts
05-Jul-20 21:19 33.741400 -115.115313 276 34764ft 408kts
05-Jul-20 21:20 33.754691 -115.251460 277 32912ft 414kts
05-Jul-20 21:21 33.768805 -115.390878 276 30963ft 425kts
05-Jul-20 21:22 33.783277 -115.531094 276 29005ft 418kts
05-Jul-20 21:23 33.797192 -115.667579 276 27116ft 409kts
05-Jul-20 21:24 33.810633 -115.801717 276 25238ft 401kts
05-Jul-20 21:25 33.823724 -115.933869 276 23396ft 393kts
05-Jul-20 21:26 33.836404 -116.063331 276 21597ft 385kts
05-Jul-20 21:27 33.849096 -116.190608 277 19632ft 379kts
05-Jul-20 21:28 33.862062 -116.315903 278 17606ft 372kts
05-Jul-20 21:29 33.875189 -116.437454 278 15936ft 360kts
05-Jul-20 21:30 33.901282 -116.552261 287 14301ft 351kts
05-Jul-20 21:31 33.929351 -116.663402 287 12684ft 344kts
05-Jul-20 21:32 33.947184 -116.774559 268 11163ft 335kts
05-Jul-20 21:33 33.943797 -116.884052 268 9701ft 302kts
05-Jul-20 21:34 33.941903 -116.980268 273 9361ft 286kts
05-Jul-20 21:35 33.966418 -117.068608 291 8472ft 263kts
05-Jul-20 21:36 33.991503 -117.146946 291 7687ft 246kts
05-Jul-20 21:37 34.016217 -117.223324 291 6645ft 242kts
05-Jul-20 21:38 34.040593 -117.297863 291 5640ft 237kts
05-Jul-20 21:39 34.054596 -117.374668 270 4483ft 241kts
05-Jul-20 21:40 34.053334 -117.452395 268 4258ft 203kts
05-Jul-20 21:41 34.052412 -117.509643 241 3845ft 152kts
05-Jul-20 21:42 34.011138 -117.494248 100 3681ft 195kts
05-Jul-20 21:43 34.011155 -117.435877 89 3443ft 179kts
05-Jul-20 21:44 34.017378 -117.379055 34 3395ft 173kts
05-Jul-20 21:45 34.046223 -117.407661 284 3927ft 174kts
05-Jul-20 21:46 34.054792 -117.462245 266 2882ft 158kts
05-Jul-20 21:47 34.054760 -117.510385 269 2165ft 138kts
05-Jul-20 21:48 34.054990 -117.557274 267 1422ft 138kts
05-Jul-20 21:49 34.054950 -117.597993 270 950ft 50kts
05-Jul-20 21:50 34.053823 -117.600718 89 950ft 8kts
05-Jul-20 21:51 34.053848 -117.594488 89 950ft 26kts
05-Jul-20 21:52 34.053847 -117.586258 90 950ft 22kts
05-Jul-20 21:53 34.052415 -117.581470 96 950ft 13kts
05-Jul-20 21:54 34.050897 -117.579728 93 950ft 3kts
05-Jul-20 21:55 34.050896 -117.579690 92 950ft 0kts
05-Jul-20 21:56 34.050896 -117.579690 92 950ft 0kts
05-Jul-20 21:57 34.050896 -117.579690 92 950ft 0kts
05-Jul-20 21:58 34.050896 -117.579690 92 950ft 0kts
05-Jul-20 21:59 34.050896 -117.579690 92 950ft 0kts
05-Jul-20 22:00 34.054967 -117.567909 268 1237ft 138kts
05-Jul-20 22:02 34.054941 -117.587843 268 951ft 136kts
05-Jul-20 22:03 34.050896 -117.579690 92 950ft 0kts

Navigation Log

Ident Type
Flight plan parsing failed, navigation log unavailable